Time;durP1;ratioP1;P1;durP2;ratioP2;P2;SDS_P1;SDS_P2;PMS_P1;PMS_P2;Temp;Humidity;BMP_temperature;BMP_pressure;BME280_temperature;BME280_humidity;BME280_pressure;Samples;Min_cycle;Max_cycle;Signal;HPM_P1;HPM_P2
2021/10/09 00:01:37;;;;;;;3.15;3.05;;;;;;;16.66;72.77;101624.53;4907328;29;20044;-81
2021/10/09 00:04:02;;;;;;;3.28;3.08;;;;;;;16.61;72.53;101608.81;4915632;29;20088;-81
2021/10/09 00:06:28;;;;;;;3.50;2.38;;;;;;;16.64;72.56;101618.47;4930074;29;20043;-81
2021/10/09 00:08:54;;;;;;;2.33;2.22;;;;;;;16.54;73.24;101614.63;4913737;29;20123;-79
2021/10/09 00:11:22;;;;;;;3.78;3.47;;;;;;;16.53;72.63;101612.16;4900780;29;20042;-81
2021/10/09 00:13:48;;;;;;;4.28;3.97;;;;;;;16.55;72.92;101613.50;4900624;29;20046;-81
2021/10/09 00:16:17;;;;;;;4.80;4.35;;;;;;;16.57;72.82;101614.06;4915370;29;20455;-79
2021/10/09 00:18:43;;;;;;;6.38;5.00;;;;;;;16.49;72.95;101609.09;4928356;29;20084;-74
2021/10/09 00:21:09;;;;;;;4.13;3.92;;;;;;;16.50;73.31;101613.53;4923484;29;20055;-75
2021/10/09 00:23:42;;;;;;;4.10;3.70;;;;;;;16.40;73.40;101614.34;4922991;29;20489;-77
2021/10/09 00:26:10;;;;;;;4.72;4.32;;;;;;;16.42;73.02;101610.50;4905011;29;20095;-75
2021/10/09 00:28:35;;;;;;;4.97;3.65;;;;;;;16.35;73.06;101613.53;4906637;29;20036;-75
2021/10/09 00:31:01;;;;;;;4.35;3.95;;;;;;;16.24;72.88;101604.44;4894104;29;20096;-75
2021/10/09 00:33:27;;;;;;;4.97;4.03;;;;;;;16.15;73.17;101601.38;4910457;29;20040;-76
2021/10/09 00:35:52;;;;;;;3.83;3.63;;;;;;;16.15;73.25;101606.91;4929218;29;20043;-76
2021/10/09 00:38:20;;;;;;;2.95;2.75;;;;;;;16.04;73.07;101596.94;4923018;29;20036;-73
2021/10/09 00:40:49;;;;;;;3.28;3.08;;;;;;;16.00;72.52;101604.13;4924408;29;20398;-77
2021/10/09 00:43:17;;;;;;;5.72;3.50;;;;;;;15.92;73.03;101601.91;4896508;29;20024;-78
2021/10/09 00:46:22;;;;;;;;;;;;;;;;;;;;;
2021/10/09 00:48:53;;;;;;;2.35;2.25;;;;;;;15.59;72.71;101593.78;4894273;29;20119;-74
2021/10/09 00:51:21;;;;;;;2.00;1.90;;;;;;;15.52;72.46;101605.09;4907665;29;20509;-77
2021/10/09 00:53:48;;;;;;;1.88;1.77;;;;;;;15.46;72.71;101617.22;4924070;29;20064;-78
2021/10/09 00:56:25;;;;;;;1.27;1.20;;;;;;;15.31;72.84;101603.34;4924465;29;20032;-76
2021/10/09 00:58:52;;;;;;;1.10;1.10;;;;;;;15.07;72.89;101597.44;4935375;29;20023;-75
2021/10/09 01:01:18;;;;;;;1.05;1.05;;;;;;;14.97;73.06;101596.31;4924116;29;20072;-75
2021/10/09 01:03:46;;;;;;;1.33;1.27;;;;;;;14.91;73.19;101608.41;4933788;29;20023;-76
2021/10/09 01:06:11;;;;;;;1.17;1.17;;;;;;;14.86;73.18;101613.03;4927458;29;20024;-75
2021/10/09 01:08:39;;;;;;;1.52;1.50;;;;;;;14.79;73.30;101616.00;4901616;29;20111;-75
2021/10/09 01:11:05;;;;;;;1.50;1.40;;;;;;;14.63;73.29;101598.56;4889639;29;20028;-74
2021/10/09 01:13:31;;;;;;;1.60;1.50;;;;;;;14.54;73.70;101600.13;4922678;29;20047;-74
2021/10/09 01:16:04;;;;;;;1.35;1.25;;;;;;;14.42;73.83;101592.88;4905213;29;20039;-75
2021/10/09 01:18:29;;;;;;;0.80;0.80;;;;;;;14.39;73.50;101604.41;4922178;29;20044;-74
2021/10/09 01:21:04;;;;;;;0.75;0.75;;;;;;;14.34;73.92;101618.16;4923827;29;20024;-75
2021/10/09 01:23:32;;;;;;;0.60;0.60;;;;;;;14.22;73.55;101603.72;4929323;29;20039;-74
2021/10/09 01:25:58;;;;;;;0.40;0.40;;;;;;;14.11;73.65;101598.13;4920621;29;20036;-75
2021/10/09 01:28:24;;;;;;;0.75;0.75;;;;;;;14.01;73.84;101592.53;4908700;29;20039;-74
2021/10/09 01:30:53;;;;;;;2.22;2.13;;;;;;;14.01;73.99;101599.97;4931285;29;20087;-76
2021/10/09 01:33:22;;;;;;;3.03;2.83;;;;;;;14.01;74.17;101603.53;4929815;29;20024;-75
2021/10/09 01:35:56;;;;;;;2.95;2.85;;;;;;;14.03;74.19;101598.63;4927106;29;20064;-76
2021/10/09 01:38:26;;;;;;;3.45;2.83;;;;;;;13.96;74.76;101584.25;4933952;29;20035;-75
2021/10/09 01:40:53;;;;;;;2.17;2.08;;;;;;;14.05;74.61;101593.69;4933515;29;20059;-75
2021/10/09 01:43:20;;;;;;;1.45;1.38;;;;;;;14.10;74.68;101592.88;4930823;29;20031;-75
2021/10/09 01:45:47;;;;;;;2.60;2.38;;;;;;;14.19;74.71;101593.25;4924304;29;20088;-79
2021/10/09 01:48:14;;;;;;;1.40;1.40;;;;;;;14.27;74.32;101603.78;4907776;29;20028;-78
2021/10/09 01:50:52;;;;;;;1.10;1.10;;;;;;;14.34;74.46;101601.63;4924934;29;20032;-77
2021/10/09 01:53:18;;;;;;;0.80;0.80;;;;;;;14.35;74.09;101597.78;4907011;29;20040;-76
2021/10/09 01:56:15;;;;;;;0.95;0.95;;;;;;;14.37;74.15;101584.59;4920347;29;20032;-77
2021/10/09 01:59:00;;;;;;;0.30;0.30;;;;;;;14.38;74.02;101575.22;4909337;29;20056;-76
2021/10/09 02:01:26;;;;;;;0.47;0.47;;;;;;;14.46;73.96;101596.75;4904648;29;20104;-77
2021/10/09 02:03:52;;;;;;;1.27;1.27;;;;;;;14.41;74.10;101594.00;4927740;29;20012;-77
2021/10/09 02:06:38;;;;;;;1.73;1.63;;;;;;;14.29;73.73;101585.91;4930007;29;20118;-77
2021/10/09 02:09:06;;;;;;;2.05;1.95;;;;;;;14.21;74.11;101591.91;4906844;29;20043;-76
2021/10/09 02:11:41;;;;;;;1.63;1.63;;;;;;;14.02;73.69;101571.34;4910014;29;20036;-78
2021/10/09 02:14:27;;;;;;;1.47;1.37;;;;;;;14.00;73.89;101584.53;4914055;29;20033;-76
2021/10/09 02:25:46;;;;;;;2.17;2.08;;;;;;;13.50;74.42;101581.00;4920862;29;21729;-75
2021/10/09 02:28:18;;;;;;;2.45;2.35;;;;;;;13.46;74.17;101588.09;4893230;29;20033;-75
2021/10/09 02:30:52;;;;;;;2.42;2.33;;;;;;;13.29;74.64;101567.00;4917418;29;20156;-74
2021/10/09 02:33:38;;;;;;;2.45;2.10;;;;;;;13.31;74.25;101585.97;4920795;29;20035;-75
2021/10/09 02:36:04;;;;;;;;;;;;;;;13.24;74.29;101575.19;4891202;29;20040;-74
2021/10/09 02:38:50;;;;;;;;;;;;;;;;;;;;;
2021/10/09 02:41:52;;;;;;;;;;;;;;;;;;;;;
2021/10/09 02:44:44;;;;;;;2.25;2.15;;;;;;;12.96;74.74;101574.28;4904352;29;20103;-75
2021/10/09 02:47:21;;;;;;;2.40;2.30;;;;;;;12.80;74.84;101555.94;4902887;29;20054;-75
2021/10/09 02:50:03;;;;;;;2.50;2.40;;;;;;;12.71;75.16;101547.31;4908502;29;20055;-74
2021/10/09 02:52:41;;;;;;;2.83;2.72;;;;;;;12.81;75.29;101569.41;4898344;29;20028;-76
2021/10/09 02:55:12;;;;;;;3.17;2.97;;;;;;;12.80;75.07;101577.91;4908565;29;20020;-76
2021/10/09 02:57:38;;;;;;;2.40;2.17;;;;;;;12.69;75.17;101566.78;4909052;29;20063;-76
2021/10/09 03:00:05;;;;;;;2.05;1.95;;;;;;;12.63;74.90;101556.81;4925941;29;20024;-78
2021/10/09 03:02:41;;;;;;;;;;;;;;;;;;;;;
2021/10/09 03:05:16;;;;;;;1.95;1.85;;;;;;;12.65;75.47;101564.78;4917013;29;20355;-75
2021/10/09 03:07:41;;;;;;;1.40;1.30;;;;;;;12.53;75.20;101560.22;4906884;29;20036;-75
2021/10/09 03:10:24;;;;;;;;;;;;;;;;;;;;;
2021/10/09 03:16:26;;;;;;;0.80;0.80;;;;;;;12.27;75.17;101539.81;4857069;29;20053;-77
2021/10/09 03:22:15;;;;;;;0.82;0.82;;;;;;;12.29;75.83;101564.25;4894485;29;20044;-77
2021/10/09 03:25:23;;;;;;;6.90;1.10;;;;;;;12.24;75.74;101556.75;4911251;29;20064;-77
2021/10/09 03:27:51;;;;;;;1.02;1.02;;;;;;;12.12;75.51;101545.03;4919255;29;20043;-77
2021/10/09 03:30:53;;;;;;;0.88;0.82;;;;;;;11.98;75.89;101537.13;4933731;29;20099;-77
2021/10/09 03:33:49;;;;;;;0.68;0.68;;;;;;;12.01;75.71;101550.34;4922647;29;20055;-79
2021/10/09 03:36:20;;;;;;;1.45;1.35;;;;;;;11.96;75.53;101542.06;4929597;29;20055;-79
2021/10/09 03:38:48;;;;;;;0.98;0.98;;;;;;;11.95;76.11;101551.34;4919434;29;20024;-75
2021/10/09 03:41:31;;;;;;;0.85;0.85;;;;;;;11.96;75.88;101563.97;4914992;29;20013;-77
2021/10/09 03:53:35;;;;;;;0.90;0.90;;;;;;;11.68;76.08;101551.09;4899634;29;20018;-78
2021/10/09 03:56:01;;;;;;;0.80;0.80;;;;;;;11.64;76.03;101545.28;4915960;29;20471;-78
2021/10/09 03:58:34;;;;;;;1.73;1.63;;;;;;;11.60;75.77;101543.28;4927828;29;20733;-77
2021/10/09 04:01:03;;;;;;;0.73;0.73;;;;;;;11.48;75.81;101526.91;4925527;29;20032;-76
2021/10/09 04:03:34;;;;;;;1.20;1.10;;;;;;;11.62;75.66;101552.94;4930615;29;20063;-76
2021/10/09 04:06:02;;;;;;;0.82;0.82;;;;;;;11.54;76.03;101545.09;4903435;29;20032;-78
2021/10/09 04:09:23;;;;;;;1.70;1.60;;;;;;;11.60;76.40;101554.25;4925420;29;20146;-77
2021/10/09 04:16:20;;;;;;;2.90;2.70;;;;;;;11.56;76.01;101547.59;4907927;29;20064;-78
2021/10/09 04:19:09;;;;;;;2.25;2.15;;;;;;;11.53;75.96;101551.66;4904483;29;20092;-77
2021/10/09 04:22:15;;;;;;;1.50;1.50;;;;;;;11.51;76.42;101549.16;4897161;29;20028;-77
2021/10/09 04:25:24;;;;;;;1.45;1.45;;;;;;;11.47;76.24;101549.88;4891543;29;20060;-76
2021/10/09 04:27:50;;;;;;;2.10;2.00;;;;;;;11.45;76.54;101546.56;4889897;29;20247;-76
2021/10/09 04:30:48;;;;;;;3.00;2.80;;;;;;;11.44;76.47;101550.38;4902910;29;20056;-80
2021/10/09 04:33:27;;;;;;;;;;;;;;;;;;;;;
2021/10/09 04:36:15;;;;;;;2.13;2.03;;;;;;;11.39;76.67;101537.44;4864550;29;20579;-75
2021/10/09 04:42:07;;;;;;;0.85;0.85;;;;;;;11.38;76.58;101529.47;4812594;29;19970;-76
2021/10/09 04:48:10;;;;;;;1.48;1.38;;;;;;;11.38;75.93;101534.94;4900982;29;20059;-76
2021/10/09 04:50:57;;;;;;;1.20;1.20;;;;;;;11.42;76.38;101538.81;4924828;29;20038;-76
2021/10/09 04:53:27;;;;;;;1.35;1.33;;;;;;;11.38;76.40;101540.41;4953700;29;20032;-76
2021/10/09 04:55:52;;;;;;;1.23;1.13;;;;;;;11.39;76.19;101544.78;4913919;29;20032;-76
2021/10/09 04:58:18;;;;;;;2.30;2.20;;;;;;;11.35;76.80;101548.03;4907226;29;20024;-76
2021/10/09 05:00:44;;;;;;;5.00;4.75;;;;;;;11.37;76.60;101547.78;4908103;29;20040;-76
2021/10/09 05:03:33;;;;;;;4.38;4.07;;;;;;;11.29;76.19;101549.00;4911156;29;20176;-75
2021/10/09 05:05:58;;;;;;;4.50;4.30;;;;;;;11.30;76.15;101550.69;4907177;29;20047;-74
2021/10/09 05:08:24;;;;;;;5.60;5.20;;;;;;;11.32;77.39;101556.72;4936548;29;20480;-75
2021/10/09 05:10:50;;;;;;;4.50;4.30;;;;;;;11.26;77.05;101544.03;4915278;29;20033;-74
2021/10/09 05:13:50;;;;;;;4.10;3.90;;;;;;;11.35;76.41;101547.19;4926730;29;20028;-76
2021/10/09 05:17:29;;;;;;;;;;;;;;;;;;;;;
2021/10/09 05:23:49;;;;;;;6.70;6.30;;;;;;;11.66;76.94;101558.75;4899463;29;20043;-79
2021/10/09 05:26:20;;;;;;;8.32;7.60;;;;;;;11.80;76.62;101565.59;4907026;29;20082;-77
2021/10/09 05:29:47;;;;;;;7.57;7.03;;;;;;;11.80;76.37;101548.31;4891768;29;20028;-77
2021/10/09 05:32:43;;;;;;;5.53;5.22;;;;;;;11.92;76.95;101565.50;4874184;29;20045;-77
2021/10/09 05:35:47;;;;;;;6.80;6.18;;;;;;;11.99;76.94;101558.00;4916082;29;20048;-77
2021/10/09 05:38:18;;;;;;;5.80;5.50;;;;;;;12.28;76.83;101577.13;4892726;29;20062;-75
2021/10/09 05:40:57;;;;;;;6.63;6.13;;;;;;;12.36;76.72;101571.22;4928457;29;20032;-77
2021/10/09 05:43:34;;;;;;;;;;;;;;;;;;;;;
2021/10/09 05:46:21;;;;;;;4.25;4.05;;;;;;;12.17;76.42;101561.56;4931865;29;20122;-76
2021/10/09 05:48:47;;;;;;;3.78;3.38;;;;;;;12.11;75.96;101566.16;4924316;29;20060;-79
2021/10/09 06:26:07;;;;;;;7.55;6.88;;;;;;;12.21;75.93;101590.19;4945325;29;20042;-77
2021/10/09 07:00:39;;;;;;;5.90;5.40;;;;;;;12.48;76.29;101614.19;4930542;29;20043;-77
2021/10/09 07:03:04;;;;;;;5.35;5.05;;;;;;;12.52;76.32;101620.84;4927602;29;20028;-78
2021/10/09 07:05:32;;;;;;;9.35;8.45;;;;;;;12.56;76.05;101622.00;4921185;29;20054;-77
2021/10/09 07:08:05;;;;;;;8.60;7.93;;;;;;;12.58;76.28;101623.41;4928062;29;20059;-77
2021/10/09 07:10:30;;;;;;;8.38;7.50;;;;;;;12.62;75.79;101625.66;4920457;29;20475;-76
2021/10/09 07:12:56;;;;;;;7.65;7.03;;;;;;;12.69;75.67;101632.66;4937899;29;20082;-77
2021/10/09 07:15:21;;;;;;;7.57;6.97;;;;;;;12.74;75.93;101629.13;4928147;29;20593;-77
2021/10/09 07:17:47;;;;;;;5.53;5.18;;;;;;;12.77;76.25;101634.13;4924239;29;20035;-77
2021/10/09 07:20:14;;;;;;;7.28;6.53;;;;;;;12.80;75.85;101633.63;4927218;29;20163;-78
2021/10/09 07:22:39;;;;;;;4.80;4.50;;;;;;;12.86;76.08;101640.03;4927607;29;20059;-76
2021/10/09 07:25:06;;;;;;;5.35;4.80;;;;;;;12.91;76.08;101640.94;4926060;29;20111;-77
2021/10/09 07:27:32;;;;;;;5.10;4.70;;;;;;;12.99;75.34;101642.41;4940270;29;20027;-78
2021/10/09 07:29:58;;;;;;;4.07;3.78;;;;;;;13.04;75.80;101637.00;4939086;29;20103;-76
2021/10/09 07:32:25;;;;;;;5.63;5.32;;;;;;;13.14;76.00;101644.56;4927040;29;20055;-77
2021/10/09 07:34:50;;;;;;;10.43;7.80;;;;;;;13.19;75.74;101646.53;4938847;29;20035;-76
2021/10/09 07:37:16;;;;;;;11.43;8.93;;;;;;;13.22;75.81;101640.53;4934519;29;20044;-74
2021/10/09 07:39:42;;;;;;;8.95;7.15;;;;;;;13.26;75.15;101636.19;4927381;29;20036;-73
2021/10/09 07:42:09;;;;;;;7.50;6.88;;;;;;;13.31;75.37;101641.75;4918278;29;20529;-73
2021/10/09 07:44:34;;;;;;;4.72;4.43;;;;;;;13.40;75.47;101636.66;4942387;29;20156;-74
2021/10/09 07:47:01;;;;;;;5.57;5.20;;;;;;;13.52;74.90;101639.28;4913299;29;20397;-73
2021/10/09 07:49:27;;;;;;;6.15;5.63;;;;;;;13.65;75.42;101649.88;4937800;29;20042;-73
2021/10/09 07:51:53;;;;;;;7.13;6.63;;;;;;;13.66;74.86;101639.75;4934440;29;20032;-75
2021/10/09 07:54:19;;;;;;;5.63;5.32;;;;;;;13.86;74.70;101650.97;4948274;29;20110;-76
2021/10/09 07:56:44;;;;;;;4.70;4.40;;;;;;;13.99;74.62;101648.88;4918895;29;20115;-75
2021/10/09 07:59:10;;;;;;;3.53;3.33;;;;;;;14.14;74.57;101647.13;4940189;29;20032;-75
2021/10/09 08:01:35;;;;;;;2.90;2.80;;;;;;;14.29;74.19;101659.34;4938794;29;20032;-76
2021/10/09 08:04:01;;;;;;;4.70;4.35;;;;;;;14.45;73.97;101652.06;4921292;29;20044;-75
2021/10/09 08:06:27;;;;;;;3.45;3.13;;;;;;;14.53;73.66;101653.50;4919094;29;20034;-75
2021/10/09 08:08:52;;;;;;;5.05;4.72;;;;;;;14.55;73.28;101656.84;4923376;29;20177;-74
2021/10/09 08:11:18;;;;;;;3.78;3.58;;;;;;;14.56;73.39;101663.97;4924957;29;20477;-73
2021/10/09 08:13:44;;;;;;;4.97;4.68;;;;;;;14.58;73.25;101662.63;4935925;29;20030;-75
2021/10/09 08:16:10;;;;;;;5.97;5.50;;;;;;;14.65;72.85;101670.72;4925167;29;20039;-75
2021/10/09 08:18:35;;;;;;;5.60;5.30;;;;;;;14.73;72.71;101670.22;4937185;29;20088;-73
2021/10/09 08:21:03;;;;;;;6.50;5.90;;;;;;;14.86;72.60;101668.13;4923572;29;20039;-73
2021/10/09 08:23:57;;;;;;;4.80;4.50;;;;;;;15.01;72.42;101677.31;4929163;29;20050;-75
2021/10/09 08:26:50;;;;;;;5.10;4.90;;;;;;;15.19;72.15;101678.78;4942938;29;20078;-75
2021/10/09 08:40:16;;;;;;;4.30;4.10;;;;;;;15.67;70.56;101677.94;4933953;29;20086;-74
2021/10/09 08:42:42;;;;;;;5.45;5.10;;;;;;;15.78;70.70;101684.31;4937224;29;20140;-73
2021/10/09 08:45:09;;;;;;;3.85;3.58;;;;;;;15.81;70.32;101679.13;4934423;29;20066;-72
2021/10/09 08:47:37;;;;;;;4.80;4.60;;;;;;;15.96;70.02;101692.13;4937900;29;20032;-73
2021/10/09 08:50:05;;;;;;;4.60;4.38;;;;;;;16.09;70.25;101690.78;4925220;29;20031;-74
2021/10/09 08:52:31;;;;;;;3.80;3.60;;;;;;;16.20;69.68;101692.44;4938541;29;20110;-74
2021/10/09 08:54:59;;;;;;;5.25;4.32;;;;;;;16.30;69.40;101686.13;4907212;29;20032;-73
2021/10/09 08:57:35;;;;;;;5.05;4.75;;;;;;;16.56;69.58;101689.72;4928646;29;20473;-73
2021/10/09 09:00:10;;;;;;;4.85;4.53;;;;;;;16.71;69.06;101691.66;4934625;29;20055;-74
2021/10/09 09:02:45;;;;;;;6.13;5.65;;;;;;;16.95;68.61;101695.81;4937286;29;20129;-73
2021/10/09 09:05:34;;;;;;;4.80;4.60;;;;;;;17.13;68.33;101698.00;4925652;29;20103;-72
2021/10/09 09:31:07;;;;;;;6.75;4.65;;;;;;;20.62;63.49;101698.78;4944383;29;20043;-73
2021/10/09 09:37:00;;;;;;;2.50;2.40;;;;;;;22.09;62.00;101695.41;4928633;29;20040;-74
2021/10/09 09:39:06;;;;;;;7.10;6.57;;;;;;;22.90;60.73;101690.13;4910915;29;20104;-74
2021/10/09 09:41:46;;;;;;;5.38;4.97;;;;;;;23.49;59.69;101679.53;4943641;29;20113;-75
2021/10/09 09:44:13;;;;;;;4.40;4.20;;;;;;;23.96;58.87;101690.22;4928636;29;20056;-75
2021/10/09 09:46:39;;;;;;;4.47;4.15;;;;;;;24.51;56.98;101690.69;4928234;29;20389;-75
2021/10/09 09:49:06;;;;;;;3.90;3.70;;;;;;;25.10;55.77;101704.06;4920731;29;20048;-77
2021/10/09 09:51:37;;;;;;;4.43;4.18;;;;;;;25.65;55.69;101698.75;4941052;29;20028;-76
2021/10/09 09:54:04;;;;;;;2.92;2.83;;;;;;;26.24;54.93;101692.25;4926261;29;20100;-75
2021/10/09 09:56:36;;;;;;;3.22;3.08;;;;;;;26.87;53.75;101692.19;4907533;29;20032;-78
2021/10/09 09:59:51;;;;;;;3.00;2.80;;;;;;;27.65;53.00;101701.63;4920748;29;20038;-79
2021/10/09 10:02:54;;;;;;;4.25;4.05;;;;;;;28.24;51.12;101705.06;4918666;29;20052;-79
2021/10/09 10:05:24;;;;;;;3.15;2.95;;;;;;;28.69;49.73;101695.53;4903776;29;20064;-79
2021/10/09 10:07:51;;;;;;;1.83;1.73;;;;;;;29.25;49.35;101694.59;4905845;29;20434;-76
2021/10/09 10:10:18;;;;;;;4.40;2.17;;;;;;;29.83;48.05;101695.97;4919369;29;20076;-76
2021/10/09 10:16:23;;;;;;;3.15;2.97;;;;;;;30.93;45.98;101689.34;4924033;29;20060;-76
2021/10/09 10:19:11;;;;;;;4.10;2.45;;;;;;;31.26;44.98;101687.91;4900363;29;20055;-76
2021/10/09 10:21:45;;;;;;;2.80;2.10;;;;;;;31.95;43.93;101698.25;4913505;29;20039;-75
2021/10/09 10:25:05;;;;;;;1.60;1.27;;;;;;;32.72;43.40;101690.34;4916728;29;20032;-77
2021/10/09 10:27:54;;;;;;;2.47;2.38;;;;;;;33.29;41.75;101700.59;4895881;29;20056;-76
2021/10/09 10:30:30;;;;;;;1.33;1.23;;;;;;;33.55;40.43;101688.25;4903718;29;20029;-78
2021/10/09 10:32:57;;;;;;;1.38;1.35;;;;;;;34.01;39.88;101701.06;4922088;29;20032;-76
2021/10/09 10:35:29;;;;;;;3.17;2.28;;;;;;;34.62;38.70;101701.31;4931006;29;20032;-76
2021/10/09 10:38:01;;;;;;;2.38;2.17;;;;;;;34.51;36.68;101704.16;4910315;29;20039;-77
2021/10/09 10:40:46;;;;;;;1.15;1.15;;;;;;;34.58;37.67;101704.16;4920009;29;20019;-74
2021/10/09 10:46:07;;;;;;;1.55;1.45;;;;;;;35.93;35.60;101703.78;4922242;29;20282;-73
2021/10/09 10:48:47;;;;;;;1.83;1.55;;;;;;;36.83;35.59;101699.72;4924139;29;20055;-75
2021/10/09 10:51:41;;;;;;;1.30;1.20;;;;;;;37.62;34.26;101696.19;4917547;29;20114;-75
2021/10/09 10:57:08;;;;;;;2.00;1.90;;;;;;;36.63;30.95;101694.53;4917353;29;20068;-74
2021/10/09 10:59:55;;;;;;;1.90;1.80;;;;;;;35.43;31.22;101681.94;4915438;29;20795;-76
2021/10/09 11:02:24;;;;;;;1.38;1.35;;;;;;;35.57;32.15;101689.66;4917690;29;20473;-74
2021/10/09 11:05:00;;;;;;;4.93;3.15;;;;;;;36.00;31.37;101689.53;4913176;29;20111;-72
2021/10/09 11:07:31;;;;;;;2.70;2.60;;;;;;;36.64;30.83;101684.75;4935004;29;20031;-74
2021/10/09 11:10:05;;;;;;;2.20;2.10;;;;;;;37.69;30.32;101701.00;4938492;29;20103;-74
2021/10/09 11:12:33;;;;;;;2.13;2.03;;;;;;;38.65;28.61;101691.66;4921130;29;20032;-75
2021/10/09 11:15:01;;;;;;;2.03;1.92;;;;;;;39.39;28.49;101685.16;4936299;29;20151;-74
2021/10/09 11:17:33;;;;;;;1.27;1.00;;;;;;;40.13;27.50;101690.69;4935354;29;20131;-73
2021/10/09 11:19:58;;;;;;;1.10;1.05;;;;;;;40.66;26.89;101678.47;4935350;29;20464;-74
2021/10/09 11:22:24;;;;;;;1.70;1.60;;;;;;;41.32;26.18;101682.13;4930566;29;20032;-74
2021/10/09 11:24:52;;;;;;;1.27;1.23;;;;;;;42.00;25.22;101679.44;4937383;29;20019;-75
2021/10/09 11:27:19;;;;;;;1.10;1.10;;;;;;;42.66;24.65;101684.00;4934744;29;20040;-74
2021/10/09 11:30:04;;;;;;;1.23;1.23;;;;;;;43.64;24.20;101682.28;4937656;29;20056;-74
2021/10/09 11:32:34;;;;;;;1.80;1.52;;;;;;;44.11;23.04;101680.53;4938034;29;20031;-75
2021/10/09 11:35:00;;;;;;;1.67;1.58;;;;;;;44.45;21.49;101675.88;4929592;29;20064;-74
2021/10/09 11:37:26;;;;;;;3.08;2.15;;;;;;;44.71;20.35;101670.72;4928490;29;20040;-75
2021/10/09 11:39:56;;;;;;;1.05;1.05;;;;;;;45.04;20.63;101675.94;4915317;29;20482;-74
2021/10/09 11:42:34;;;;;;;1.02;1.02;;;;;;;45.48;20.54;101675.66;4912605;29;20105;-76
2021/10/09 11:45:24;;;;;;;1.08;0.95;;;;;;;45.52;18.68;101671.81;4925535;29;20040;-73
2021/10/09 11:53:54;;;;;;;5.93;2.95;;;;;;;45.43;18.10;101663.94;4932131;29;20067;-74
2021/10/09 11:56:20;;;;;;;1.88;1.77;;;;;;;45.23;18.20;101662.34;4934502;29;20494;-74
2021/10/09 11:58:58;;;;;;;1.42;1.33;;;;;;;45.51;18.45;101659.47;4931437;29;20055;-75
2021/10/09 12:01:36;;;;;;;1.00;1.00;;;;;;;45.89;18.31;101654.44;4936211;29;20028;-74
2021/10/09 12:04:14;;;;;;;0.60;0.60;;;;;;;46.27;18.40;101659.63;4930822;29;20062;-74
2021/10/09 12:06:43;;;;;;;1.02;1.00;;;;;;;45.76;17.70;101655.41;4924791;29;20028;-75
2021/10/09 12:09:31;;;;;;;2.42;2.33;;;;;;;45.12;17.65;101641.81;4932009;29;20043;-77
2021/10/09 12:12:10;;;;;;;1.45;1.42;;;;;;;45.61;17.39;101655.28;4924874;29;20045;-76
2021/10/09 12:14:39;;;;;;;1.20;0.80;;;;;;;46.11;17.57;101648.44;4930418;29;20047;-76
2021/10/09 12:17:05;;;;;;;0.80;0.80;;;;;;;46.78;17.30;101651.34;4905258;29;20808;-76
2021/10/09 12:19:31;;;;;;;2.92;2.83;;;;;;;47.13;15.47;101653.69;4910063;29;20044;-75
2021/10/09 12:22:05;;;;;;;1.35;1.33;;;;;;;47.35;15.56;101656.25;4918062;29;20028;-75
2021/10/09 12:24:33;;;;;;;1.40;1.30;;;;;;;47.32;15.26;101652.22;4927762;29;20028;-76
2021/10/09 12:27:12;;;;;;;1.95;1.85;;;;;;;47.65;15.15;101651.31;4939600;29;20095;-74
2021/10/09 12:30:01;;;;;;;0.68;0.68;;;;;;;48.20;15.26;101654.91;4932731;29;20056;-75
2021/10/09 12:32:28;;;;;;;1.38;0.80;;;;;;;48.58;15.05;101653.91;4914263;29;20057;-76
2021/10/09 12:35:17;;;;;;;0.60;0.60;;;;;;;49.23;15.14;101650.03;4930687;29;20104;-76
2021/10/09 12:38:01;;;;;;;2.58;2.42;;;;;;;49.49;13.93;101636.81;4937280;29;20019;-75
2021/10/09 12:40:48;;;;;;;2.90;2.70;;;;;;;49.47;13.23;101645.28;4915390;29;20032;-75
2021/10/09 12:43:25;;;;;;;2.25;2.15;;;;;;;49.07;12.99;101622.38;4935805;29;20039;-75
2021/10/09 12:46:00;;;;;;;1.55;1.55;;;;;;;48.97;12.93;101626.75;4940350;29;20102;-75
2021/10/09 12:48:25;;;;;;;0.80;0.80;;;;;;;48.68;13.33;101622.66;4921462;29;20086;-75
2021/10/09 12:50:51;;;;;;;2.13;2.03;;;;;;;48.52;13.24;101624.03;4918859;29;20487;-74
2021/10/09 12:53:16;;;;;;;0.95;0.95;;;;;;;48.61;13.84;101622.31;4912353;29;20042;-74
2021/10/09 12:55:44;;;;;;;1.13;1.13;;;;;;;48.90;13.61;101621.38;4934572;29;20059;-75
2021/10/09 12:58:10;;;;;;;1.20;1.20;;;;;;;49.08;12.92;101617.34;4932773;29;20130;-75
2021/10/09 13:00:37;;;;;;;1.27;1.27;;;;;;;49.35;12.76;101621.13;4897959;29;20039;-74
2021/10/09 13:03:03;;;;;;;1.35;1.35;;;;;;;49.53;12.83;101611.25;4932670;29;20118;-77
2021/10/09 13:05:32;;;;;;;2.05;1.95;;;;;;;49.65;12.22;101615.88;4913904;29;20084;-75
2021/10/09 13:08:00;;;;;;;1.48;1.40;;;;;;;49.60;12.44;101620.31;4899341;29;20112;-75
2021/10/09 13:10:32;;;;;;;1.30;1.20;;;;;;;49.59;12.62;101612.13;4915252;29;20140;-74
2021/10/09 13:12:58;;;;;;;1.67;1.58;;;;;;;48.85;12.20;101619.19;4909753;29;20043;-74
2021/10/09 13:15:26;;;;;;;1.05;1.05;;;;;;;48.29;12.67;101605.47;4899348;29;20032;-76
2021/10/09 13:17:51;;;;;;;1.35;1.30;;;;;;;48.14;12.18;101614.22;4919132;29;20041;-74
2021/10/09 13:20:18;;;;;;;1.00;1.00;;;;;;;47.87;12.72;101613.25;4911404;29;20516;-75
2021/10/09 13:22:44;;;;;;;0.90;0.90;;;;;;;47.92;12.80;101613.84;4906730;29;20467;-75
2021/10/09 13:25:13;;;;;;;0.63;0.63;;;;;;;48.08;12.31;101603.81;4908246;29;20061;-74
2021/10/09 13:27:38;;;;;;;0.95;0.95;;;;;;;48.20;12.95;101600.59;4908694;29;20046;-75
2021/10/09 13:30:07;;;;;;;1.30;1.30;;;;;;;48.49;12.40;101592.34;4911693;29;20394;-75
2021/10/09 13:32:32;;;;;;;1.13;1.13;;;;;;;48.80;12.25;101605.41;4901687;29;20111;-73
2021/10/09 13:34:58;;;;;;;0.68;0.68;;;;;;;49.13;12.47;101580.97;4907060;29;20123;-76
2021/10/09 13:37:25;;;;;;;0.73;0.73;;;;;;;49.60;12.06;101596.28;4894047;29;20038;-75
2021/10/09 13:39:54;;;;;;;1.17;1.17;;;;;;;49.82;11.77;101589.06;4915896;29;20035;-75
2021/10/09 13:42:20;;;;;;;1.17;1.17;;;;;;;50.05;11.78;101593.75;4910820;29;20032;-74
2021/10/09 13:44:46;;;;;;;0.52;0.52;;;;;;;50.25;11.50;101586.19;4924677;29;20028;-76
2021/10/09 13:47:11;;;;;;;0.60;0.60;;;;;;;50.43;11.65;101591.63;4911139;29;20039;-75
2021/10/09 13:49:37;;;;;;;0.63;0.63;;;;;;;50.59;11.43;101592.25;4904156;29;20139;-75
2021/10/09 13:52:03;;;;;;;0.63;0.63;;;;;;;50.67;11.30;101593.34;4899317;29;20068;-76
2021/10/09 13:54:32;;;;;;;2.28;0.70;;;;;;;50.53;10.95;101585.56;4906358;29;20035;-75
2021/10/09 13:56:57;;;;;;;0.80;0.80;;;;;;;50.21;10.75;101576.91;4910919;29;20071;-75
2021/10/09 13:59:23;;;;;;;0.75;0.75;;;;;;;50.13;11.00;101577.44;4913287;29;20347;-75
2021/10/09 14:01:58;;;;;;;0.65;0.65;;;;;;;50.16;11.07;101578.50;4904403;29;20572;-74
2021/10/09 14:04:25;;;;;;;0.93;0.63;;;;;;;50.14;11.04;101578.22;4924265;29;20080;-74
2021/10/09 14:06:51;;;;;;;1.48;1.38;;;;;;;50.07;10.82;101570.75;4934746;29;20040;-74
2021/10/09 14:09:16;;;;;;;1.70;1.60;;;;;;;49.81;10.23;101570.03;4931672;29;20027;-75
2021/10/09 14:11:42;;;;;;;1.52;1.50;;;;;;;49.43;10.50;101564.16;4935571;29;20027;-74
2021/10/09 14:14:07;;;;;;;1.00;1.00;;;;;;;49.20;11.06;101572.66;4928687;29;20122;-75
2021/10/09 14:16:33;;;;;;;1.60;1.50;;;;;;;49.05;11.02;101569.81;4929095;29;20496;-75
2021/10/09 14:18:59;;;;;;;1.25;0.63;;;;;;;49.02;11.00;101570.84;4925800;29;20074;-76
2021/10/09 14:21:24;;;;;;;1.48;1.38;;;;;;;48.88;10.34;101560.16;4937145;29;20042;-72
2021/10/09 15:26:13;;;;;;;0.60;0.60;;;;;;;38.82;16.22;101504.81;4936792;29;20107;-77
2021/10/09 15:28:47;;;;;;;0.52;0.52;;;;;;;39.50;16.17;101498.97;4938240;29;20481;-76
2021/10/09 15:31:16;;;;;;;1.20;1.20;;;;;;;40.08;15.83;101505.03;4917322;29;20045;-74
2021/10/09 15:33:44;;;;;;;0.82;0.82;;;;;;;40.23;15.61;101499.78;4908523;29;20035;-75
2021/10/09 15:36:12;;;;;;;1.05;1.05;;;;;;;40.21;15.50;101501.47;4918305;29;20035;-75
2021/10/09 15:38:39;;;;;;;0.90;0.90;;;;;;;39.72;15.50;101500.16;4885981;29;20064;-74
2021/10/09 15:41:04;;;;;;;1.50;1.40;;;;;;;39.44;15.82;101508.09;4918446;29;20029;-77
2021/10/09 15:43:30;;;;;;;0.93;0.93;;;;;;;39.12;16.17;101497.31;4902847;29;20032;-77
2021/10/09 15:46:24;;;;;;;0.80;0.80;;;;;;;38.84;16.21;101504.38;4919949;29;20020;-77